Flight Track Log - Related Links

Times and Time Zones

All times are in EDT time to prevent confusion due to time zone crossing. See the EIA5169 flight status page for this flight to view local times or setup timezone preferences in your user account.

Time Position Orientation Groundspeed Altitude Reporting Facility
EDT Latitude Longitude Course Direction KTS MPH feet Rate Location/Type
Tue 04:51:43 PM 61.2667 -150.4000 270° West 290 334 7,800  Level Anchorage Center
Tue 04:52:43 PM 61.2667 -150.5670 270° West 300 345 10,800 2,380 Climbing Anchorage Center
Tue 04:53:44 PM 61.2667 -150.7670 270° West 360 414 12,600 2,529 Climbing Anchorage Center
Tue 04:54:44 PM 61.2667 -150.9830 270° West 380 437 15,900 2,850 Climbing Anchorage Center
Tue 04:55:44 PM 61.2667 -151.2170 270° West 390 449 18,300 2,250 Climbing Anchorage Center
Tue 04:56:44 PM 61.2667 -151.4500 270° West 400 460 20,400 2,050 Climbing Anchorage Center
Tue 04:57:44 PM 61.2667 -151.6830 277° West 420 483 22,400 1,934 Climbing Anchorage Center
Tue 04:58:45 PM 61.2833 -151.9830 270° West 440 506 24,300 1,785 Climbing Anchorage Center
Tue 04:59:45 PM 61.2833 -152.2330 270° West 440 506 26,000 1,537 Climbing Anchorage Center
Tue 05:00:46 PM 61.2833 -152.5000 270° West 460 529 27,400 1,500 Climbing Anchorage Center
Tue 05:01:45 PM 61.2833 -152.7670 270° West 460 529 29,000 1,450 Climbing Anchorage Center
Tue 05:02:46 PM 61.2833 -153.0330 270° West 470 541 30,300 1,289 Climbing Anchorage Center
Tue 05:03:46 PM 61.2833 -153.3170 270° West 480 552 31,600 1,339 Climbing Anchorage Center
Tue 05:04:47 PM 61.2833 -153.6170 263° West 490 564 33,000 1,240 Climbing Anchorage Center
Tue 05:05:47 PM 61.2667 -153.9000 270° West 470 541 34,100 1,050 Climbing Anchorage Center
Tue 05:06:47 PM 61.2667 -154.1670 270° West 470 541 35,100 950 Climbing Anchorage Center
Tue 05:07:47 PM 61.2667 -154.4330 270° West 470 541 36,000 450 Climbing Anchorage Center
Tue 05:08:47 PM 61.2667 -154.7170 270° West 480 552 36,000  Level Anchorage Center
Tue 05:09:48 PM 61.2667 -155.0000 263° West 490 564 36,000  Level Anchorage Center
Tue 05:10:48 PM 61.2500 -155.2830 270° West 480 552 36,000  Level Anchorage Center
Tue 05:11:48 PM 61.2500 -155.5500 270° West 490 564 36,000  Level Anchorage Center
Tue 05:12:48 PM 61.2500 -155.8330 270° West 490 564 36,000  Level Anchorage Center
Tue 05:13:04 PM 61.2500 -155.8830 270° West 480 552 36,000  Level Anchorage Center
Tue 05:13:49 PM 61.2500 -156.1170 270° West 480 552 36,000  Level Anchorage Center
Tue 05:14:49 PM 61.2500 -156.4000 270° West 490 564 36,000  Level Anchorage Center
Tue 05:15:50 PM 61.2500 -156.6830 270° West 500 575 36,000  Level Anchorage Center
Tue 05:16:50 PM 61.2500 -156.9830 270° West 500 575 36,000  Level Anchorage Center
Tue 05:17:50 PM 61.2500 -157.2670 270° West 500 575 36,000  Level Anchorage Center
Tue 05:18:51 PM 61.2500 -157.5500 270° West 500 575 36,000  Level Anchorage Center
Tue 05:19:50 PM 61.2500 -157.8500 263° West 500 575 36,000  Level Anchorage Center
Tue 05:20:51 PM 61.2333 -158.1330 270° West 490 564 36,000  Level Anchorage Center
Tue 05:21:51 PM 61.2333 -158.4170 270° West 500 575 36,000  Level Anchorage Center
Tue 05:22:52 PM 61.2333 -158.7670 270° West 500 575 36,000  Level Anchorage Center
Tue 05:23:52 PM 61.2333 -159.0670 270° West 510 587 36,000  Level Anchorage Center
Tue 05:24:52 PM 61.2333 -159.3500 263° West 500 575 36,000  Level Anchorage Center
Tue 05:25:52 PM 61.2167 -159.6330 270° West 500 575 36,000  Level Anchorage Center
Tue 05:26:52 PM 61.2167 -159.9330 263° West 490 564 36,000  Level Anchorage Center
Tue 05:27:53 PM 61.2000 -160.2170 270° West 500 575 36,000  Level Anchorage Center
Tue 05:28:53 PM 61.2000 -160.5000 263° West 500 575 36,000  Level Anchorage Center
Tue 05:29:53 PM 61.1833 -160.7830 270° West 480 552 36,000  Level Anchorage Center
Tue 05:30:54 PM 61.1833 -161.0670 264° West 500 575 36,000  Level Anchorage Center
Tue 05:31:54 PM 61.1667 -161.3670 270° West 510 587 36,000  Level Anchorage Center
Tue 05:32:54 PM 61.1667 -161.6500 263° West 500 575 36,000  Level Anchorage Center
Tue 05:33:54 PM 61.1500 -161.9330 264° West 510 587 36,000  Level Anchorage Center
Tue 05:34:55 PM 61.1333 -162.2330 270° West 500 575 36,000  Level Anchorage Center
Tue 05:35:55 PM 61.1333 -162.5170 264° West 500 575 36,000  Level Anchorage Center
Tue 05:36:55 PM 61.1167 -162.8170 263° West 490 564 36,000  Level Anchorage Center
Tue 05:37:56 PM 61.1000 -163.1000 249° West 490 564 36,000  Level Anchorage Center
Tue 05:38:56 PM 61.0500 -163.3670 253° West 490 564 36,000  Level Anchorage Center
Tue 05:39:56 PM 61.0167 -163.6500 249° West 490 564  Descending Anchorage Center
Tue 05:40:56 PM 60.9667 -163.9170 256° West 500 575 36,000 17,851 Climbing Anchorage Center
Tue 05:41:57 PM 60.9333 -164.2000 256° West 490 564 36,000  Level Anchorage Center
Tue 05:42:57 PM 60.9000 -164.4670 249° West 490 564 36,000  Level Anchorage Center
Tue 05:43:57 PM 60.8500 -164.7330 257° West 490 564 36,000  Level Anchorage Center
Tue 05:44:58 PM 60.8167 -165.0170 249° West 490 564 36,000  Level Anchorage Center
Tue 05:45:58 PM 60.7667 -165.2830 249° West 490 564 36,000  Level Anchorage Center
Tue 05:46:58 PM 60.7167 -165.5500 256° West 490 564 36,000  Level Anchorage Center
Tue 05:47:58 PM 60.6833 -165.8170 256° West 490 564 36,000  Level Anchorage Center
Tue 05:48:59 PM 60.6500 -166.0830 249° West 490 564 36,000  Level Anchorage Center
Tue 05:49:59 PM 60.6000 -166.3500 249° West 490 564 36,000  Level Anchorage Center
Tue 05:50:59 PM 60.5500 -166.6170 250° West 500 575 36,000  Level Anchorage Center
Tue 05:52:00 PM 60.5000 -166.9000 249° West 500 575 36,000  Level Anchorage Center
Tue 05:53:00 PM 60.4500 -167.1670 256° West 510 587 36,000  Level Anchorage Center
Tue 05:54:00 PM 60.4167 -167.4330 248° West 510 587 36,000  Level Anchorage Center
Tue 05:55:14 PM 60.3500 -167.7670 250° West 520 598 36,000  Level Anchorage Center
Tue 05:56:14 PM 60.3000 -168.0500 249° West 510 587 36,000  Level Anchorage Center
Tue 05:57:15 PM 60.2500 -168.3170 249° West 510 587 36,000  Level Anchorage Center
Tue 05:58:15 PM 60.2000 -168.5830 249° West 510 587 36,000  Level Anchorage Center
Tue 05:59:15 PM 60.1500 -168.8500 251° West 510 587 36,000  Level Anchorage Center
Tue 06:00:15 PM 60.1000 -169.1330 250° West 510 587 36,000  Level Anchorage Center
Tue 06:01:15 PM 60.0500 -169.4000 250° West 510 587 36,000  Level Anchorage Center
Tue 06:02:16 PM 60.0000 -169.6670 248° West 500 575 36,000  Level Anchorage Center
Tue 06:03:16 PM 59.9500 -169.9170 244° Southwest 500 575 36,000  Level Anchorage Center
Tue 06:04:16 PM 59.8833 -170.1830 251° West 500 575 36,000  Level Anchorage Center
Tue 06:05:16 PM 59.8333 -170.4670 248° West 500 575 36,000  Level Anchorage Center
Tue 06:06:17 PM 59.7833 -170.7170 250° West 490 564 36,000  Level Anchorage Center
Tue 06:07:17 PM 59.7333 -170.9830 242° Southwest 500 575 36,000  Level Anchorage Center
Tue 06:08:17 PM 59.6667 -171.2330 249° West 500 575 36,000  Level Anchorage Center
Tue 06:09:17 PM 59.6167 -171.4830 249° West 490 564 36,000  Level Anchorage Center
Tue 06:10:17 PM 59.5667 -171.7330 249° West 500 575 36,000  Level Anchorage Center
Tue 06:11:18 PM 59.5167 -171.9830 249° West 490 564 36,000  Level Anchorage Center
Tue 06:12:18 PM 59.4667 -172.2330 249° West 490 564 36,000  Level Anchorage Center
Tue 06:13:18 PM 59.4167 -172.4830 242° Southwest 490 564 36,000  Level Anchorage Center
Tue 06:14:19 PM 59.3500 -172.7330 250° West 490 564 36,000  Level Anchorage Center
Tue 06:15:19 PM 59.3000 -173.0000 249° West 500 575 36,000  Level Anchorage Center
Tue 06:16:19 PM 59.2500 -173.2500 249° West 500 575 36,000  Level Anchorage Center
Tue 06:17:19 PM 59.2000 -173.5000 249° West 500 575 36,000  Level Anchorage Center
Tue 06:18:20 PM 59.1500 -173.7500 243° Southwest 510 587 36,000  Level Anchorage Center
Tue 06:19:20 PM 59.0833 -174.0000 249° West 490 564 36,000  Level Anchorage Center
Tue 06:20:20 PM 59.0333 -174.2500 249° West 500 575 36,000  Level Anchorage Center
Tue 06:21:20 PM 58.9833 -174.5000 243° Southwest 500 575 36,000  Level Anchorage Center
Tue 06:22:21 PM 58.9167 -174.7500 249° West 500 575 36,000  Level Anchorage Center
Tue 06:23:21 PM 58.8667 -175.0000 249° West 490 564 36,000  Level Anchorage Center
Tue 06:24:21 PM 58.8167 -175.2500 241° Southwest 500 575 36,000  Level Anchorage Center
Tue 06:25:22 PM 58.7500 -175.4830 249° West 500 575 36,000  Level Anchorage Center
Tue 06:26:22 PM 58.7000 -175.7330 243° Southwest 500 575 36,000  Level Anchorage Center
Tue 06:27:22 PM 58.6333 -175.9830 249° West 510 587 36,000  Level Anchorage Center
Tue 06:28:22 PM 58.5833 -176.2330 243° Southwest 510 587 36,000  Level Anchorage Center
Tue 06:29:22 PM 58.5167 -176.4830 243° Southwest 510 587 36,000  Level Anchorage Center
Tue 06:30:22 PM 58.4500 -176.7330 249° West 520 598 36,000  Level Anchorage Center
Tue 06:31:23 PM 58.4000 -176.9830 243° Southwest 530 610 36,000  Level Anchorage Center
Tue 06:32:23 PM 58.3333 -177.2330 245° Southwest 510 587 36,000  Level Anchorage Center
Tue 07:06:42 PM 55.9833 174.8500 238° Southwest 480 552 36,000  Level Anchorage Center
Tue 07:08:27 PM 55.8500 174.4670 237° Southwest 520 598 36,000 182 Level Anchorage Center
Tue 07:09:27 PM 55.7833 174.2830 238° Southwest 520 598 36,500 992 Climbing Anchorage Center
Tue 07:10:28 PM 55.7000 174.0500 242° Southwest 500 575 38,000 750 Climbing Anchorage Center
Tue 07:11:27 PM 55.6333 173.8330 235° Southwest 490 564 38,000  Level Anchorage Center
Tue 07:12:28 PM 55.5667 173.6670 236° Southwest 490 564 38,000  Level Anchorage Center
Tue 07:13:28 PM 55.4833 173.4500 237° Southwest 480 552 38,000  Level Anchorage Center
Tue 07:14:28 PM 55.4167 173.2670 234° Southwest 480 552 38,000  Level Anchorage Center
Tue 07:15:28 PM 55.3333 173.0670 238° Southwest 480 552 38,000  Level Anchorage Center
Tue 07:16:29 PM 55.2667 172.8830 242° Southwest 490 564 38,000  Level Anchorage Center
Tue 07:17:29 PM 55.2000 172.6670 236° Southwest 490 564 38,000  Level Anchorage Center
Tue 07:18:29 PM 55.1167 172.4500 235° Southwest 490 564 38,000  Level Anchorage Center
Tue 07:19:29 PM 55.0500 172.2830 236° Southwest 490 564 38,000  Level Anchorage Center
Tue 07:20:30 PM 54.9667 172.0670 235° Southwest 490 564 38,000  Level Anchorage Center
Tue 07:21:30 PM 54.9000 171.9000 229° Southwest 500 575 38,000  Level Anchorage Center
Tue 07:22:30 PM 54.8000 171.7000 235° Southwest 480 552 38,000  Level Anchorage Center
Tue 07:23:30 PM 54.7333 171.5330 236° Southwest 480 552 38,000  Level Anchorage Center
Tue 07:24:31 PM 54.6500 171.3170 234° Southwest 490 564 38,000  Level Anchorage Center
Tue 07:25:31 PM 54.5667 171.1170 236° Southwest 480 552 38,000  Level Anchorage Center
Tue 07:26:31 PM 54.5000 170.9500 234° Southwest 490 564 38,000  Level Anchorage Center
Tue 07:27:31 PM 54.4167 170.7500 233° Southwest 480 552 38,000  Level Anchorage Center
Tue 07:28:31 PM 54.3500 170.6000 232° Southwest 470 541 38,000  Level Anchorage Center
Tue 07:29:32 PM 54.2500 170.3830 235° Southwest 510 587 38,000  Level Anchorage Center
Tue 07:30:32 PM 54.1667 170.1830 233° Southwest 490 564 38,000  Level Anchorage Center
Tue 07:31:32 PM 54.1000 170.0330 230° Southwest 500 575 38,000  Level Anchorage Center
Tue 07:32:32 PM 54.0000 169.8330 236° Southwest 490 564 38,000  Level Anchorage Center
Tue 07:33:33 PM 53.9333 169.6670 235° Southwest 480 552 38,000  Level Anchorage Center
Tue 07:34:33 PM 53.8500 169.4670 233° Southwest 480 552 38,000  Level Anchorage Center
Tue 07:35:33 PM 53.7833 169.3170 232° Southwest 490 564 38,000  Level Anchorage Center
Tue 07:36:34 PM 53.6833 169.1000 247° West 500 575 38,000  Level Anchorage Center
Tue 07:37:34 PM 53.6333 168.9000 236° Southwest 470 541 38,000  Level Anchorage Center
Tue 07:38:34 PM 53.5667 168.7330 243° Southwest 480 552 38,000  Level Anchorage Center
Tue 07:39:34 PM 53.5000 168.5170 241° Southwest 470 541 38,000  Level Anchorage Center
Tue 07:40:34 PM 53.4500 168.3670 241° Southwest 460 529 -38,000 Descending Anchorage Center

Login

Don't have an account? Register now (free) for customized features, flight alerts, and more!